sensor_id;sensor_type;location;lat;lon;timestamp;pressure;altitude;pressure_sealevel;temperature;humidity
19112;BME280;9688;51.906;8.376;2023-05-02T00:01:59;100845.38;;;13.90;90.56
19112;BME280;9688;51.906;8.376;2023-05-02T00:04:45;100842.66;;;13.91;90.47
19112;BME280;9688;51.906;8.376;2023-05-02T00:07:31;100847.97;;;13.91;90.72
19112;BME280;9688;51.906;8.376;2023-05-02T00:10:16;100855.84;;;13.93;90.86
19112;BME280;9688;51.906;8.376;2023-05-02T00:13:05;100855.19;;;13.88;90.79
19112;BME280;9688;51.906;8.376;2023-05-02T00:15:52;100844.72;;;13.84;90.77
19112;BME280;9688;51.906;8.376;2023-05-02T00:18:37;100845.81;;;13.80;91.50
19112;BME280;9688;51.906;8.376;2023-05-02T00:21:23;100846.03;;;13.76;91.52
19112;BME280;9688;51.906;8.376;2023-05-02T00:24:09;100856.72;;;13.74;91.89
19112;BME280;9688;51.906;8.376;2023-05-02T00:26:55;100858.38;;;13.77;91.79
19112;BME280;9688;51.906;8.376;2023-05-02T00:29:41;100859.25;;;13.77;91.89
19112;BME280;9688;51.906;8.376;2023-05-02T00:32:31;100851.19;;;13.79;92.09
19112;BME280;9688;51.906;8.376;2023-05-02T00:35:17;100859.16;;;13.79;92.04
19112;BME280;9688;51.906;8.376;2023-05-02T00:38:03;100860.13;;;13.78;91.88
19112;BME280;9688;51.906;8.376;2023-05-02T00:40:49;100859.31;;;13.76;91.73
19112;BME280;9688;51.906;8.376;2023-05-02T00:43:36;100863.84;;;13.74;91.78
19112;BME280;9688;51.906;8.376;2023-05-02T00:46:22;100865.72;;;13.72;91.55
19112;BME280;9688;51.906;8.376;2023-05-02T00:49:09;100862.31;;;13.68;91.95
19112;BME280;9688;51.906;8.376;2023-05-02T00:51:55;100861.63;;;13.65;91.83
19112;BME280;9688;51.906;8.376;2023-05-02T00:54:41;100865.28;;;13.62;91.74
19112;BME280;9688;51.906;8.376;2023-05-02T00:57:28;100866.38;;;13.58;91.97
19112;BME280;9688;51.906;8.376;2023-05-02T01:00:13;100868.22;;;13.56;91.71
19112;BME280;9688;51.906;8.376;2023-05-02T01:03:07;100859.47;;;13.54;91.79
19112;BME280;9688;51.906;8.376;2023-05-02T01:06:00;100866.78;;;13.49;91.86
19112;BME280;9688;51.906;8.376;2023-05-02T01:08:53;100868.88;;;13.42;91.97
19112;BME280;9688;51.906;8.376;2023-05-02T01:11:47;100867.22;;;13.39;92.12
19112;BME280;9688;51.906;8.376;2023-05-02T01:14:37;100868.94;;;13.41;92.00
19112;BME280;9688;51.906;8.376;2023-05-02T01:17:29;100873.53;;;13.37;91.59
19112;BME280;9688;51.906;8.376;2023-05-02T01:20:19;100871.94;;;13.33;91.84
19112;BME280;9688;51.906;8.376;2023-05-02T01:23:12;100871.16;;;13.31;92.60
19112;BME280;9688;51.906;8.376;2023-05-02T01:26:12;100873.81;;;13.31;92.18
19112;BME280;9688;51.906;8.376;2023-05-02T01:29:04;100872.88;;;13.32;92.04
19112;BME280;9688;51.906;8.376;2023-05-02T01:31:50;100877.19;;;13.34;92.47
19112;BME280;9688;51.906;8.376;2023-05-02T01:34:39;100878.13;;;13.33;91.72
19112;BME280;9688;51.906;8.376;2023-05-02T01:37:29;100871.03;;;13.34;91.75
19112;BME280;9688;51.906;8.376;2023-05-02T01:40:16;100876.53;;;13.29;91.49
19112;BME280;9688;51.906;8.376;2023-05-02T01:43:04;100872.22;;;13.27;92.18
19112;BME280;9688;51.906;8.376;2023-05-02T01:45:56;100876.69;;;13.26;92.30
19112;BME280;9688;51.906;8.376;2023-05-02T01:48:44;100882.84;;;13.27;92.29
19112;BME280;9688;51.906;8.376;2023-05-02T01:51:32;100876.63;;;13.28;92.15
19112;BME280;9688;51.906;8.376;2023-05-02T01:54:21;100888.94;;;13.29;92.03
19112;BME280;9688;51.906;8.376;2023-05-02T01:57:08;100895.22;;;13.28;92.27
19112;BME280;9688;51.906;8.376;2023-05-02T01:59:59;100905.03;;;13.26;92.61
19112;BME280;9688;51.906;8.376;2023-05-02T02:02:56;100907.19;;;13.16;92.34
19112;BME280;9688;51.906;8.376;2023-05-02T02:05:42;100909.25;;;13.09;92.26
19112;BME280;9688;51.906;8.376;2023-05-02T02:08:29;100923.47;;;13.08;92.87
19112;BME280;9688;51.906;8.376;2023-05-02T02:11:17;100921.66;;;13.09;92.99
19112;BME280;9688;51.906;8.376;2023-05-02T02:14:16;100932.34;;;13.07;92.48
19112;BME280;9688;51.906;8.376;2023-05-02T02:17:10;100923.72;;;13.02;92.85
19112;BME280;9688;51.906;8.376;2023-05-02T02:20:00;100941.56;;;12.99;92.87
19112;BME280;9688;51.906;8.376;2023-05-02T02:22:51;100940.78;;;12.97;92.96
19112;BME280;9688;51.906;8.376;2023-05-02T02:25:38;100943.41;;;12.97;92.82
19112;BME280;9688;51.906;8.376;2023-05-02T02:28:23;100952.13;;;13.00;93.08
19112;BME280;9688;51.906;8.376;2023-05-02T02:31:11;100952.13;;;13.00;93.19
19112;BME280;9688;51.906;8.376;2023-05-02T02:33:58;100953.03;;;12.99;92.75
19112;BME280;9688;51.906;8.376;2023-05-02T02:36:49;100954.00;;;12.98;93.42
19112;BME280;9688;51.906;8.376;2023-05-02T02:39:45;100959.34;;;12.97;92.98
19112;BME280;9688;51.906;8.376;2023-05-02T02:42:38;100959.28;;;12.98;93.40
19112;BME280;9688;51.906;8.376;2023-05-02T02:45:31;100960.16;;;12.99;93.22
19112;BME280;9688;51.906;8.376;2023-05-02T02:48:22;100955.84;;;12.96;92.72
19112;BME280;9688;51.906;8.376;2023-05-02T02:51:13;100959.44;;;12.95;93.02
19112;BME280;9688;51.906;8.376;2023-05-02T02:54:08;100962.88;;;12.97;92.93
19112;BME280;9688;51.906;8.376;2023-05-02T02:57:00;100967.16;;;13.00;93.05
19112;BME280;9688;51.906;8.376;2023-05-02T02:59:51;100970.72;;;13.00;93.01
19112;BME280;9688;51.906;8.376;2023-05-02T03:02:41;100966.19;;;13.02;93.03
19112;BME280;9688;51.906;8.376;2023-05-02T03:05:30;100976.03;;;13.00;92.56
19112;BME280;9688;51.906;8.376;2023-05-02T03:08:17;100978.06;;;12.93;92.34
19112;BME280;9688;51.906;8.376;2023-05-02T03:11:04;100972.97;;;12.89;93.35
19112;BME280;9688;51.906;8.376;2023-05-02T03:13:50;100976.66;;;12.85;93.13
19112;BME280;9688;51.906;8.376;2023-05-02T03:16:38;100987.41;;;12.82;92.64
19112;BME280;9688;51.906;8.376;2023-05-02T03:19:23;100994.44;;;12.83;93.29
19112;BME280;9688;51.906;8.376;2023-05-02T03:22:09;100997.16;;;12.81;93.09
19112;BME280;9688;51.906;8.376;2023-05-02T03:24:54;100994.56;;;12.80;92.89
19112;BME280;9688;51.906;8.376;2023-05-02T03:27:41;100998.06;;;12.80;92.61
19112;BME280;9688;51.906;8.376;2023-05-02T03:30:26;100991.91;;;12.80;92.69
19112;BME280;9688;51.906;8.376;2023-05-02T03:33:12;100998.16;;;12.79;92.74
19112;BME280;9688;51.906;8.376;2023-05-02T03:35:58;101000.00;;;12.77;92.86
19112;BME280;9688;51.906;8.376;2023-05-02T03:38:43;101004.44;;;12.76;92.53
19112;BME280;9688;51.906;8.376;2023-05-02T03:41:29;101006.28;;;12.74;93.16
19112;BME280;9688;51.906;8.376;2023-05-02T03:44:16;100996.75;;;12.70;93.12
19112;BME280;9688;51.906;8.376;2023-05-02T03:47:02;101002.84;;;12.72;92.91
19112;BME280;9688;51.906;8.376;2023-05-02T03:49:47;101001.06;;;12.72;93.38
19112;BME280;9688;51.906;8.376;2023-05-02T03:52:33;101004.88;;;12.65;93.40
19112;BME280;9688;51.906;8.376;2023-05-02T03:55:19;101003.16;;;12.64;93.69
19112;BME280;9688;51.906;8.376;2023-05-02T03:58:05;101015.38;;;12.68;93.50
19112;BME280;9688;51.906;8.376;2023-05-02T04:00:52;101010.72;;;12.73;92.79
19112;BME280;9688;51.906;8.376;2023-05-02T04:03:37;101020.41;;;12.75;93.12
19112;BME280;9688;51.906;8.376;2023-05-02T04:06:23;101018.56;;;12.77;93.04
19112;BME280;9688;51.906;8.376;2023-05-02T04:09:08;101027.34;;;12.79;92.87
19112;BME280;9688;51.906;8.376;2023-05-02T04:11:53;101033.66;;;12.75;93.30
19112;BME280;9688;51.906;8.376;2023-05-02T04:14:39;101036.28;;;12.76;93.90
19112;BME280;9688;51.906;8.376;2023-05-02T04:17:26;101037.13;;;12.77;93.98
19112;BME280;9688;51.906;8.376;2023-05-02T04:20:13;101040.00;;;12.72;93.97
19112;BME280;9688;51.906;8.376;2023-05-02T04:22:59;101045.41;;;12.69;94.00
19112;BME280;9688;51.906;8.376;2023-05-02T04:25:50;101041.97;;;12.67;94.41
19112;BME280;9688;51.906;8.376;2023-05-02T04:28:36;101049.72;;;12.71;93.84
19112;BME280;9688;51.906;8.376;2023-05-02T04:31:22;101048.00;;;12.70;94.58
19112;BME280;9688;51.906;8.376;2023-05-02T04:34:09;101051.69;;;12.66;94.17
19112;BME280;9688;51.906;8.376;2023-05-02T04:36:54;101062.28;;;12.66;94.42
19112;BME280;9688;51.906;8.376;2023-05-02T04:39:40;101065.06;;;12.63;94.45
19112;BME280;9688;51.906;8.376;2023-05-02T04:42:25;101069.78;;;12.57;94.92
19112;BME280;9688;51.906;8.376;2023-05-02T04:45:11;101070.59;;;12.59;94.68
19112;BME280;9688;51.906;8.376;2023-05-02T04:47:57;101075.03;;;12.58;95.94
19112;BME280;9688;51.906;8.376;2023-05-02T04:50:45;101078.47;;;12.60;95.23
19112;BME280;9688;51.906;8.376;2023-05-02T04:53:30;101081.06;;;12.62;95.75
19112;BME280;9688;51.906;8.376;2023-05-02T04:56:16;101083.75;;;12.60;95.70
19112;BME280;9688;51.906;8.376;2023-05-02T04:59:02;101091.56;;;12.65;95.42
19112;BME280;9688;51.906;8.376;2023-05-02T05:01:47;101091.72;;;12.60;95.60
19112;BME280;9688;51.906;8.376;2023-05-02T05:04:33;101095.22;;;12.61;96.05
19112;BME280;9688;51.906;8.376;2023-05-02T05:07:19;101091.47;;;12.66;96.18
19112;BME280;9688;51.906;8.376;2023-05-02T05:10:06;101099.25;;;12.71;95.66
19112;BME280;9688;51.906;8.376;2023-05-02T05:12:54;101104.66;;;12.69;96.48
19112;BME280;9688;51.906;8.376;2023-05-02T05:15:40;101103.88;;;12.66;96.34
19112;BME280;9688;51.906;8.376;2023-05-02T05:18:25;101114.50;;;12.66;96.75
19112;BME280;9688;51.906;8.376;2023-05-02T05:21:11;101110.94;;;12.67;96.88
19112;BME280;9688;51.906;8.376;2023-05-02T05:23:58;101114.38;;;12.69;97.82
19112;BME280;9688;51.906;8.376;2023-05-02T05:26:46;101114.63;;;12.63;98.25
19112;BME280;9688;51.906;8.376;2023-05-02T05:29:32;101127.94;;;12.61;98.10
19112;BME280;9688;51.906;8.376;2023-05-02T05:32:17;101139.53;;;12.59;98.73
19112;BME280;9688;51.906;8.376;2023-05-02T05:35:04;101153.72;;;12.58;98.54
19112;BME280;9688;51.906;8.376;2023-05-02T05:37:49;101159.53;;;12.44;98.84
19112;BME280;9688;51.906;8.376;2023-05-02T05:40:36;101156.31;;;12.36;98.96
19112;BME280;9688;51.906;8.376;2023-05-02T05:43:23;101170.59;;;12.32;99.08
19112;BME280;9688;51.906;8.376;2023-05-02T05:46:09;101175.28;;;12.25;97.87
19112;BME280;9688;51.906;8.376;2023-05-02T05:48:54;101172.66;;;12.23;97.58
19112;BME280;9688;51.906;8.376;2023-05-02T05:51:40;101174.38;;;12.24;98.41
19112;BME280;9688;51.906;8.376;2023-05-02T05:54:25;101165.47;;;12.27;97.51
19112;BME280;9688;51.906;8.376;2023-05-02T05:57:12;101185.78;;;12.28;97.20
19112;BME280;9688;51.906;8.376;2023-05-02T05:59:58;101193.53;;;12.33;96.15
19112;BME280;9688;51.906;8.376;2023-05-02T06:02:43;101189.75;;;12.40;96.33
19112;BME280;9688;51.906;8.376;2023-05-02T06:05:30;101196.72;;;12.42;95.92
19112;BME280;9688;51.906;8.376;2023-05-02T06:08:16;101205.66;;;12.40;96.17
19112;BME280;9688;51.906;8.376;2023-05-02T06:11:02;101212.69;;;12.41;95.56
19112;BME280;9688;51.906;8.376;2023-05-02T06:13:51;101208.91;;;12.48;95.72
19112;BME280;9688;51.906;8.376;2023-05-02T06:16:38;101209.53;;;12.55;95.58
19112;BME280;9688;51.906;8.376;2023-05-02T06:19:26;101222.38;;;12.65;95.44
19112;BME280;9688;51.906;8.376;2023-05-02T06:22:12;101221.06;;;12.77;94.49
19112;BME280;9688;51.906;8.376;2023-05-02T06:24:58;101220.66;;;12.88;93.99
19112;BME280;9688;51.906;8.376;2023-05-02T06:27:44;101224.81;;;12.95;94.16
19112;BME280;9688;51.906;8.376;2023-05-02T06:30:31;101224.72;;;12.97;94.27
19112;BME280;9688;51.906;8.376;2023-05-02T06:33:17;101234.44;;;12.98;94.08
19112;BME280;9688;51.906;8.376;2023-05-02T06:36:03;101227.34;;;12.98;93.43
19112;BME280;9688;51.906;8.376;2023-05-02T06:38:48;101241.59;;;12.95;93.68
19112;BME280;9688;51.906;8.376;2023-05-02T06:41:34;101258.44;;;12.71;93.33
19112;BME280;9688;51.906;8.376;2023-05-02T06:44:20;101274.03;;;12.30;93.11
19112;BME280;9688;51.906;8.376;2023-05-02T06:47:08;101277.00;;;11.96;94.12
19112;BME280;9688;51.906;8.376;2023-05-02T06:49:58;101276.78;;;11.75;93.33
19112;BME280;9688;51.906;8.376;2023-05-02T06:52:44;101293.38;;;11.52;93.18
19112;BME280;9688;51.906;8.376;2023-05-02T06:55:30;101294.72;;;11.37;94.14
19112;BME280;9688;51.906;8.376;2023-05-02T06:58:16;101298.75;;;11.21;93.66
19112;BME280;9688;51.906;8.376;2023-05-02T07:01:03;101303.47;;;11.11;93.68
19112;BME280;9688;51.906;8.376;2023-05-02T07:03:51;101307.88;;;11.11;93.41
19112;BME280;9688;51.906;8.376;2023-05-02T07:06:39;101319.50;;;11.05;93.89
19112;BME280;9688;51.906;8.376;2023-05-02T07:09:24;101323.19;;;11.00;93.18
19112;BME280;9688;51.906;8.376;2023-05-02T07:12:11;101326.56;;;11.06;92.48
19112;BME280;9688;51.906;8.376;2023-05-02T07:15:00;101326.25;;;11.17;93.90
19112;BME280;9688;51.906;8.376;2023-05-02T07:17:47;101336.69;;;11.22;92.43
19112;BME280;9688;51.906;8.376;2023-05-02T07:20:37;101343.84;;;11.18;93.41
19112;BME280;9688;51.906;8.376;2023-05-02T07:23:25;101347.56;;;11.11;92.05
19112;BME280;9688;51.906;8.376;2023-05-02T07:26:10;101355.97;;;10.96;92.16
19112;BME280;9688;51.906;8.376;2023-05-02T07:28:56;101361.38;;;10.91;92.33
19112;BME280;9688;51.906;8.376;2023-05-02T07:31:43;101366.38;;;11.02;92.92
19112;BME280;9688;51.906;8.376;2023-05-02T07:34:28;101370.88;;;10.98;92.76
19112;BME280;9688;51.906;8.376;2023-05-02T07:37:23;101384.22;;;10.93;92.47
19112;BME280;9688;51.906;8.376;2023-05-02T07:40:13;101386.84;;;10.95;92.18
19112;BME280;9688;51.906;8.376;2023-05-02T07:43:00;101381.66;;;10.90;91.26
19112;BME280;9688;51.906;8.376;2023-05-02T07:45:48;101395.97;;;10.83;90.56
19112;BME280;9688;51.906;8.376;2023-05-02T07:48:34;101395.00;;;10.86;91.00
19112;BME280;9688;51.906;8.376;2023-05-02T07:51:19;101395.47;;;11.02;90.15
19112;BME280;9688;51.906;8.376;2023-05-02T07:54:15;101402.56;;;11.00;89.07
19112;BME280;9688;51.906;8.376;2023-05-02T07:57:01;101401.25;;;10.83;88.79
19112;BME280;9688;51.906;8.376;2023-05-02T07:59:48;101410.94;;;10.84;88.87
19112;BME280;9688;51.906;8.376;2023-05-02T08:02:34;101414.63;;;10.79;88.89
19112;BME280;9688;51.906;8.376;2023-05-02T08:05:20;101410.59;;;10.97;88.14
19112;BME280;9688;51.906;8.376;2023-05-02T08:08:06;101417.09;;;11.16;87.98
19112;BME280;9688;51.906;8.376;2023-05-02T08:10:53;101433.16;;;11.10;86.56
19112;BME280;9688;51.906;8.376;2023-05-02T08:13:38;101438.44;;;11.11;85.68
19112;BME280;9688;51.906;8.376;2023-05-02T08:16:24;101442.69;;;11.17;85.70
19112;BME280;9688;51.906;8.376;2023-05-02T08:19:10;101448.78;;;11.19;85.03
19112;BME280;9688;51.906;8.376;2023-05-02T08:21:55;101457.91;;;11.09;83.89
19112;BME280;9688;51.906;8.376;2023-05-02T08:24:41;101455.47;;;11.00;83.93
19112;BME280;9688;51.906;8.376;2023-05-02T08:27:28;101461.81;;;10.94;84.15
19112;BME280;9688;51.906;8.376;2023-05-02T08:30:16;101467.16;;;10.92;83.42
19112;BME280;9688;51.906;8.376;2023-05-02T08:33:05;101463.59;;;10.93;82.77
19112;BME280;9688;51.906;8.376;2023-05-02T08:35:51;101472.28;;;10.99;83.65
19112;BME280;9688;51.906;8.376;2023-05-02T08:38:40;101470.50;;;10.99;83.38
19112;BME280;9688;51.906;8.376;2023-05-02T08:41:28;101476.78;;;10.95;83.40
19112;BME280;9688;51.906;8.376;2023-05-02T08:44:20;101482.97;;;10.94;82.37
19112;BME280;9688;51.906;8.376;2023-05-02T08:47:13;101493.59;;;10.92;83.58
19112;BME280;9688;51.906;8.376;2023-05-02T08:50:08;101488.31;;;10.92;83.39
19112;BME280;9688;51.906;8.376;2023-05-02T08:52:56;101484.84;;;10.90;82.97
19112;BME280;9688;51.906;8.376;2023-05-02T08:55:42;101499.50;;;11.02;82.29
19112;BME280;9688;51.906;8.376;2023-05-02T08:58:28;101498.41;;;11.11;82.53
19112;BME280;9688;51.906;8.376;2023-05-02T09:01:18;101509.81;;;11.13;81.90
19112;BME280;9688;51.906;8.376;2023-05-02T09:04:05;101515.28;;;11.07;81.68
19112;BME280;9688;51.906;8.376;2023-05-02T09:06:51;101518.22;;;10.94;81.48
19112;BME280;9688;51.906;8.376;2023-05-02T09:09:37;101520.94;;;10.93;82.61
19112;BME280;9688;51.906;8.376;2023-05-02T09:12:25;101525.03;;;11.05;82.79
19112;BME280;9688;51.906;8.376;2023-05-02T09:15:14;101532.41;;;11.26;81.44
19112;BME280;9688;51.906;8.376;2023-05-02T09:18:03;101538.28;;;11.37;81.92
19112;BME280;9688;51.906;8.376;2023-05-02T09:20:51;101537.50;;;11.34;80.75
19112;BME280;9688;51.906;8.376;2023-05-02T09:23:39;101541.78;;;11.38;80.53
19112;BME280;9688;51.906;8.376;2023-05-02T09:26:29;101548.69;;;11.44;80.54
19112;BME280;9688;51.906;8.376;2023-05-02T09:29:18;101550.97;;;11.57;79.40
19112;BME280;9688;51.906;8.376;2023-05-02T09:32:05;101548.22;;;11.93;79.02
19112;BME280;9688;51.906;8.376;2023-05-02T09:35:06;101546.78;;;12.13;77.95
19112;BME280;9688;51.906;8.376;2023-05-02T09:37:56;101545.91;;;12.42;77.52
19112;BME280;9688;51.906;8.376;2023-05-02T09:40:52;101552.06;;;12.70;75.80
19112;BME280;9688;51.906;8.376;2023-05-02T09:43:40;101562.94;;;12.89;74.94
19112;BME280;9688;51.906;8.376;2023-05-02T09:46:38;101561.00;;;12.94;73.91
19112;BME280;9688;51.906;8.376;2023-05-02T09:49:48;101563.59;;;12.96;73.32
19112;BME280;9688;51.906;8.376;2023-05-02T09:52:35;101569.94;;;12.92;72.91
19112;BME280;9688;51.906;8.376;2023-05-02T09:55:21;101563.38;;;13.02;72.35
19112;BME280;9688;51.906;8.376;2023-05-02T09:58:19;101576.50;;;13.07;71.78
19112;BME280;9688;51.906;8.376;2023-05-02T10:01:06;101570.34;;;13.06;71.90
19112;BME280;9688;51.906;8.376;2023-05-02T10:03:53;101572.56;;;13.18;71.83
19112;BME280;9688;51.906;8.376;2023-05-02T10:06:43;101574.06;;;13.27;71.22
19112;BME280;9688;51.906;8.376;2023-05-02T10:09:40;101582.97;;;13.26;70.68
19112;BME280;9688;51.906;8.376;2023-05-02T10:12:31;101587.47;;;13.23;70.57
19112;BME280;9688;51.906;8.376;2023-05-02T10:15:20;101589.22;;;13.24;70.38
19112;BME280;9688;51.906;8.376;2023-05-02T10:18:12;101584.13;;;13.17;70.11
19112;BME280;9688;51.906;8.376;2023-05-02T10:21:05;101588.56;;;13.17;69.88
19112;BME280;9688;51.906;8.376;2023-05-02T10:23:57;101596.28;;;13.25;69.94
19112;BME280;9688;51.906;8.376;2023-05-02T10:26:48;101594.47;;;13.25;69.61
19112;BME280;9688;51.906;8.376;2023-05-02T10:29:38;101597.88;;;13.30;69.18
19112;BME280;9688;51.906;8.376;2023-05-02T10:32:28;101590.09;;;13.51;68.30
19112;BME280;9688;51.906;8.376;2023-05-02T10:35:15;101594.84;;;13.66;67.46
19112;BME280;9688;51.906;8.376;2023-05-02T10:38:02;101596.63;;;13.66;67.39
19112;BME280;9688;51.906;8.376;2023-05-02T10:40:53;101599.03;;;13.73;66.78
19112;BME280;9688;51.906;8.376;2023-05-02T10:43:46;101601.47;;;13.79;66.60
19112;BME280;9688;51.906;8.376;2023-05-02T10:46:35;101609.75;;;13.95;66.08
19112;BME280;9688;51.906;8.376;2023-05-02T10:49:22;101609.53;;;14.01;66.08
19112;BME280;9688;51.906;8.376;2023-05-02T10:52:25;101606.28;;;13.93;65.60
19112;BME280;9688;51.906;8.376;2023-05-02T10:55:17;101617.84;;;13.92;65.55
19112;BME280;9688;51.906;8.376;2023-05-02T10:58:22;101611.72;;;13.90;65.48
19112;BME280;9688;51.906;8.376;2023-05-02T11:01:33;101623.88;;;13.97;65.43
19112;BME280;9688;51.906;8.376;2023-05-02T11:04:21;101617.97;;;14.13;64.94
19112;BME280;9688;51.906;8.376;2023-05-02T11:07:16;101624.81;;;14.20;64.34
19112;BME280;9688;51.906;8.376;2023-05-02T11:10:25;101614.50;;;14.34;63.71
19112;BME280;9688;51.906;8.376;2023-05-02T11:13:14;101619.84;;;14.58;63.31
19112;BME280;9688;51.906;8.376;2023-05-02T11:16:04;101623.06;;;14.66;62.67
19112;BME280;9688;51.906;8.376;2023-05-02T11:19:00;101619.78;;;14.81;62.42
19112;BME280;9688;51.906;8.376;2023-05-02T11:21:47;101613.41;;;15.07;61.78
19112;BME280;9688;51.906;8.376;2023-05-02T11:24:37;101620.22;;;15.14;61.09
19112;BME280;9688;51.906;8.376;2023-05-02T11:27:38;101615.84;;;15.13;61.24
19112;BME280;9688;51.906;8.376;2023-05-02T11:30:39;101615.88;;;15.12;61.15
19112;BME280;9688;51.906;8.376;2023-05-02T11:33:27;101616.31;;;15.01;61.31
19112;BME280;9688;51.906;8.376;2023-05-02T11:36:26;101625.72;;;14.66;61.78
19112;BME280;9688;51.906;8.376;2023-05-02T11:39:19;101623.00;;;14.20;62.49
19112;BME280;9688;51.906;8.376;2023-05-02T11:42:06;101619.75;;;13.89;63.28
19112;BME280;9688;51.906;8.376;2023-05-02T11:44:56;101627.41;;;13.73;63.61
19112;BME280;9688;51.906;8.376;2023-05-02T11:47:42;101633.13;;;13.60;63.86
19112;BME280;9688;51.906;8.376;2023-05-02T11:50:29;101630.78;;;13.51;63.99
19112;BME280;9688;51.906;8.376;2023-05-02T11:53:19;101639.47;;;13.56;64.16
19112;BME280;9688;51.906;8.376;2023-05-02T11:56:07;101641.69;;;13.69;63.79
19112;BME280;9688;51.906;8.376;2023-05-02T11:58:57;101647.19;;;13.64;63.79
19112;BME280;9688;51.906;8.376;2023-05-02T12:01:49;101644.44;;;13.67;63.56
19112;BME280;9688;51.906;8.376;2023-05-02T12:04:43;101647.19;;;13.64;63.56
19112;BME280;9688;51.906;8.376;2023-05-02T12:07:35;101654.97;;;13.69;63.57
19112;BME280;9688;51.906;8.376;2023-05-02T12:10:35;101661.00;;;13.74;63.43
19112;BME280;9688;51.906;8.376;2023-05-02T12:13:26;101666.41;;;13.72;63.33
19112;BME280;9688;51.906;8.376;2023-05-02T12:16:11;101675.75;;;13.57;62.63
19112;BME280;9688;51.906;8.376;2023-05-02T12:19:00;101683.94;;;13.51;62.43
19112;BME280;9688;51.906;8.376;2023-05-02T12:25:15;101689.56;;;13.42;61.18
19112;BME280;9688;51.906;8.376;2023-05-02T12:28:04;101694.63;;;13.50;61.22
19112;BME280;9688;51.906;8.376;2023-05-02T12:30:58;101683.22;;;13.73;60.27
19112;BME280;9688;51.906;8.376;2023-05-02T12:33:56;101690.47;;;13.93;59.89
19112;BME280;9688;51.906;8.376;2023-05-02T12:36:45;101689.72;;;14.14;58.92
19112;BME280;9688;51.906;8.376;2023-05-02T12:39:34;101692.38;;;14.38;58.15
19112;BME280;9688;51.906;8.376;2023-05-02T12:42:24;101696.03;;;14.35;57.57
19112;BME280;9688;51.906;8.376;2023-05-02T12:45:19;101695.72;;;14.44;57.50
19112;BME280;9688;51.906;8.376;2023-05-02T12:48:22;101701.91;;;14.68;56.80
19112;BME280;9688;51.906;8.376;2023-05-02T12:51:20;101693.63;;;14.76;56.02
19112;BME280;9688;51.906;8.376;2023-05-02T12:54:06;101706.00;;;15.01;55.62
19112;BME280;9688;51.906;8.376;2023-05-02T12:56:53;101711.38;;;15.21;54.76
19112;BME280;9688;51.906;8.376;2023-05-02T12:59:42;101721.69;;;15.30;53.66
19112;BME280;9688;51.906;8.376;2023-05-02T13:02:32;101713.91;;;15.46;53.40
19112;BME280;9688;51.906;8.376;2023-05-02T13:05:18;101707.59;;;15.49;52.61
19112;BME280;9688;51.906;8.376;2023-05-02T13:08:04;101702.81;;;15.57;52.01
19112;BME280;9688;51.906;8.376;2023-05-02T13:10:50;101707.59;;;15.71;51.41
19112;BME280;9688;51.906;8.376;2023-05-02T13:13:36;101711.78;;;15.76;51.33
19112;BME280;9688;51.906;8.376;2023-05-02T13:16:22;101706.88;;;15.66;50.93
19112;BME280;9688;51.906;8.376;2023-05-02T13:19:09;101721.44;;;15.36;51.15
19112;BME280;9688;51.906;8.376;2023-05-02T13:21:55;101716.72;;;15.21;51.03
19112;BME280;9688;51.906;8.376;2023-05-02T13:24:42;101716.38;;;15.30;50.56
19112;BME280;9688;51.906;8.376;2023-05-02T13:27:29;101716.38;;;15.30;50.97
19112;BME280;9688;51.906;8.376;2023-05-02T13:30:17;101718.72;;;15.38;50.54
19112;BME280;9688;51.906;8.376;2023-05-02T13:33:02;101725.94;;;15.34;50.29
19112;BME280;9688;51.906;8.376;2023-05-02T13:35:50;101728.50;;;15.37;49.68
19112;BME280;9688;51.906;8.376;2023-05-02T13:38:36;101730.41;;;15.34;49.46
19112;BME280;9688;51.906;8.376;2023-05-02T13:41:27;101728.31;;;15.42;49.07
19112;BME280;9688;51.906;8.376;2023-05-02T13:44:14;101729.38;;;15.16;49.51
19112;BME280;9688;51.906;8.376;2023-05-02T13:47:04;101728.25;;;14.76;50.26
19112;BME280;9688;51.906;8.376;2023-05-02T13:49:52;101732.09;;;14.69;50.55
19112;BME280;9688;51.906;8.376;2023-05-02T13:52:42;101735.66;;;14.43;50.89
19112;BME280;9688;51.906;8.376;2023-05-02T13:55:30;101733.47;;;14.31;50.72
19112;BME280;9688;51.906;8.376;2023-05-02T13:58:16;101728.16;;;14.05;50.92
19112;BME280;9688;51.906;8.376;2023-05-02T14:01:04;101732.16;;;13.92;50.62
19112;BME280;9688;51.906;8.376;2023-05-02T14:03:52;101729.22;;;13.75;50.85
19112;BME280;9688;51.906;8.376;2023-05-02T14:06:41;101734.94;;;13.88;50.84
19112;BME280;9688;51.906;8.376;2023-05-02T14:09:29;101744.03;;;14.07;50.26
19112;BME280;9688;51.906;8.376;2023-05-02T14:12:21;101742.84;;;14.16;50.06
19112;BME280;9688;51.906;8.376;2023-05-02T14:15:11;101741.16;;;14.13;50.22
19112;BME280;9688;51.906;8.376;2023-05-02T14:18:01;101740.84;;;14.22;50.29
19112;BME280;9688;51.906;8.376;2023-05-02T14:20:47;101737.31;;;14.22;50.15
19112;BME280;9688;51.906;8.376;2023-05-02T14:23:33;101738.94;;;14.26;50.15
19112;BME280;9688;51.906;8.376;2023-05-02T14:26:21;101736.28;;;14.26;49.79
19112;BME280;9688;51.906;8.376;2023-05-02T14:29:08;101743.50;;;14.22;49.25
19112;BME280;9688;51.906;8.376;2023-05-02T14:31:58;101737.63;;;14.13;49.61
19112;BME280;9688;51.906;8.376;2023-05-02T14:34:48;101739.44;;;14.12;49.08
19112;BME280;9688;51.906;8.376;2023-05-02T14:37:36;101740.34;;;14.11;49.12
19112;BME280;9688;51.906;8.376;2023-05-02T14:40:23;101735.03;;;14.11;49.12
19112;BME280;9688;51.906;8.376;2023-05-02T14:43:13;101747.38;;;14.14;49.04
19112;BME280;9688;51.906;8.376;2023-05-02T14:46:01;101740.78;;;14.24;49.28
19112;BME280;9688;51.906;8.376;2023-05-02T14:48:49;101738.81;;;14.29;49.48
19112;BME280;9688;51.906;8.376;2023-05-02T14:51:38;101746.09;;;14.24;49.79
19112;BME280;9688;51.906;8.376;2023-05-02T14:54:25;101750.69;;;14.19;49.84
19112;BME280;9688;51.906;8.376;2023-05-02T14:57:11;101759.56;;;14.19;49.71